Terminal Aerodrome Forecast
Issued by NWS

Home | Current Version | Previous Version | Text Only | Print | Product List | Glossary On
Versions: 1 2 3 4 5 6 7 8 9 10 11 12 13
000
FTUS46 KLOX 241700
TAFSBA
TAF
KSBA 241724Z 2418/2518 VRB04KT P6SM SKC
     FM242100 25007KT P6SM SKC
     FM250400 VRB03KT P6SM SKC=

USA.gov is the U.S. government's official web portal to all federal, state and local government web resources and services.